Etusivu
METAR-TAF:

METAR-TAF

Lentoasemat :

Biserta, Tunisia

Leveyspiiri: 37-15N, Pituuspiiri: 009-48E, korkeus merenpinnasta: 5 m

Tämänhetkinen sää

Tämä raportti tehtiin 20 minuuttia sitten, kello 08.00 UTC
Tuuli 2 kn eri suunnista
Lämpötila 28°C
Kosteus 40%
Ilmanpaine 1017 hPa
Näkyvyys 10 km tai enemmän
ei pilviä alle 1500 m:ssä eikä cumulonimbus-pilviä

METAR: DTTB 140800Z VRB02KT CAVOK 28/13 Q1017

Aika: 09:20 (08:20 UTC)

Sääennuste

Tämä raportti tehtiin 2 tuntia ja 20 minuuttia sitten, kello 06.00 UTC
Ennuste voimassa 14. päivästä klo 07 UTC - 14. päivään klo 16 UTC
Tuuli 2 kn eri suunnista
Näkyvyys 10 km tai enemmän
ei pilviä alle 1500 m:ssä eikä cumulonimbus-pilviä
Tulossa
14. päivästä klo 08 UTC - 14. päivään klo 10 UTC
Tuuli 8 kn koillisesta
Näkyvyys 10 km tai enemmän
Muutamia pilviä 2300 ft:n korkeudessa

TAF: DTTB 140600Z 1407/1416 VRB02KT CAVOK BECMG 1408/1410 04008KT 9999 FEW023

Säähavainnot ja -ennusteet yli 4000 lentoasemalta (METAR- ja TAF-raportit).

Käytössä olevat sääasemat on merkitty karttaan keltaisilla ja punaisilla pisteillä.

Aseta hiiri pisteen päälle nähdäksesi sääaseman nimen.

Klikkaa sitten nähdäksesi säähavainnot ja -ennusteet.

Kartan vaihtaminen: klikkaa mustalla rastilla varustettuja vihreitä pisteitä, niin voit zoomata sisään; viivalla varustettua vihreää pistettä, niin voit zoomata ulos tai vihreitä nuolia, niin pääset viereisille kartoille.


METAR-TAF: